Météo Nord-Pas-de-Calais   La météo au plus près de chez vous

Station météorologique

Observations météo à Auxerre-Perrigny (89295)

89295001 152 m Dernier relevé à 17:36
29.1°C
Humidité 30 % Vent 7.9 km/h 1020 hPa

Journée consultée

Dimanche 6 Septembre 2026

Synthèse de la journée

Périodes de référence en UTC

Température maximale

30°C

à 16:00

06h 06h

Température minimale

10.3°C

à 07:24

18h 18h

Rafale maximale

21 km/h

à 13:06

00h 00h

Précipitations

0 mm

Cumul quotidien

06h 06h

Ensoleillement

6h 15 mins

Durée quotidienne

00h 00h

Graphiques de la journée

Heure locale Réduire

Données détaillées

Relevés météo

Pas de 6 minutes Afficher les relevés infra-horaires
Relevés météo détaillés à Auxerre-Perrigny pour le Dimanche 6 Septembre 2026
Heure Température °C Point de rosée °C Humidité % Vent moyen (raf.), km/h Précipitations mm Température à 10 cm °C Température à 20 cm °C Température à 50 cm °C Température à 100 cm °C Visibilité m État du sol   Hauteur neige cm Ensoleillement min Rayonnement global W/m² Pression hPa
17:36 29.1 °C 10.2 °C 31 % 10 km/h (12 km/h) 0 mm0 mm 26.6 °C 25.8 °C 23.1 °C 21.8 °C 20000 m 0   0 cm 0 min 83.5 W/m² 1019.8 hPa
17:30 28.9 °C 10.1 °C 31 % 10 km/h (13 km/h) 0 mm0 mm 26.6 °C 25.8 °C 23.1 °C 21.8 °C 20000 m 0   0 cm 0 min 83.3 W/m² 1019.7 hPa
17:24 28.9 °C 10.5 °C 32 % 10 km/h (14 km/h) 0 mm0 mm 26.6 °C 25.8 °C 23.1 °C 21.8 °C 20000 m 0   0 cm 0 min 76.7 W/m² 1019.8 hPa
17:18 29 °C 10.2 °C 31 % 11 km/h (14 km/h) 0 mm0 mm 26.5 °C 25.8 °C 23.1 °C 21.8 °C 20000 m 0   0 cm 0 min 86.3 W/m² 1019.8 hPa
17:12 29.1 °C 10.2 °C 31 % 10 km/h (13 km/h) 0 mm0 mm 26.5 °C 25.8 °C 23.1 °C 21.8 °C 20000 m 0   0 cm 0 min 92.1 W/m² 1019.8 hPa
17:06 29.1 °C 10.7 °C 32 % 9 km/h (13 km/h) 0 mm0 mm 26.5 °C 25.7 °C 23.1 °C 21.8 °C 20000 m 0   0 cm 0 min 83.3 W/m² 1019.8 hPa
17:00 29.1 °C 10.7 °C 32 % 9 km/h (12 km/h) 0 mm0 mm 26.5 °C 25.7 °C 23.1 °C 21.8 °C 20000 m 0   0 cm 0 min 86.7 W/m² 1019.9 hPa
16:54 29.1 °C 10.2 °C 31 % 9 km/h (13 km/h) 0 mm0 mm 26.5 °C 25.6 °C 23.1 °C 21.8 °C 20000 m 0   0 cm 0 min 92 W/m² 1020 hPa
16:48 29.1 °C 10.2 °C 31 % 9 km/h (13 km/h) 0 mm0 mm 26.4 °C 25.6 °C 23.1 °C 21.8 °C 20000 m 0   0 cm 0 min 85.4 W/m² 1019.9 hPa
16:42 29 °C 9.7 °C 30 % 9 km/h (12 km/h) 0 mm0 mm 26.4 °C 25.5 °C 23.1 °C 21.8 °C 20000 m 0   0 cm 0 min 82.7 W/m² 1020 hPa
16:36 29.1 °C 9.8 °C 30 % 8 km/h (12 km/h) 0 mm0 mm 26.4 °C 25.5 °C 23.1 °C 21.8 °C 20000 m 0   0 cm 0 min 74.6 W/m² 1020 hPa
16:30 28.9 °C 10.1 °C 31 % 9 km/h (13 km/h) 0 mm0 mm 26.3 °C 25.5 °C 23.1 °C 21.8 °C 20000 m 0   0 cm 0 min 75.5 W/m² 1020 hPa
16:24 28.9 °C 9.6 °C 30 % 9 km/h (14 km/h) 0 mm0 mm 26.3 °C 25.4 °C 23.1 °C 21.8 °C 20000 m 0   0 cm 0 min 80.6 W/m² 1020 hPa
16:18 29 °C 9.7 °C 30 % 7 km/h (14 km/h) 0 mm0 mm 26.2 °C 25.3 °C 23.1 °C 21.8 °C 20000 m 0   0 cm 0 min 86.9 W/m² 1020 hPa
16:12 29.1 °C 9.2 °C 29 % 7 km/h (11 km/h) 0 mm0 mm 26.1 °C 25.3 °C 23.1 °C 21.8 °C 20000 m 0   0 cm 0 min 94.1 W/m² 1020.2 hPa
16:06 29.2 °C 9.8 °C 30 % 7 km/h (11 km/h) 0 mm0 mm 26.1 °C 25.2 °C 23.1 °C 21.8 °C 20000 m 0   0 cm 0 min 115 W/m² 1020.3 hPa
16:00 29 °C 9.7 °C 30 % 8 km/h (13 km/h) 0 mm0 mm 26 °C 25.2 °C 23.1 °C 21.8 °C 20000 m 0   0 cm 0 min 111.6 W/m² 1020.4 hPa
15:54 29.2 °C 9.3 °C 29 % 8 km/h (14 km/h) 0 mm0 mm 25.9 °C 25.1 °C 23.1 °C 21.8 °C 20000 m 0   0 cm 0 min 111.6 W/m² 1020.4 hPa
15:48 29.5 °C 9.6 °C 29 % 6 km/h (12 km/h) 0 mm0 mm 25.9 °C 25 °C 23.1 °C 21.8 °C 20000 m 0   0 cm 0 min 131.2 W/m² 1020.5 hPa
15:42 29.4 °C 9 °C 28 % 6 km/h (12 km/h) 0 mm0 mm 25.8 °C 25 °C 23.1 °C 21.8 °C 20000 m 0   0 cm 1 min 144.7 W/m² 1020.5 hPa
15:36 29.7 °C 9.8 °C 29 % 8 km/h (13 km/h) 0 mm0 mm 25.8 °C 24.9 °C 23.1 °C 21.8 °C 20000 m 0   0 cm 6 min 254.6 W/m² 1020.5 hPa
15:30 29.2 °C 9.8 °C 30 % 8 km/h (13 km/h) 0 mm0 mm 25.7 °C 24.8 °C 23.1 °C 21.8 °C 20000 m 0   0 cm 4 min 181.5 W/m² 1020.7 hPa
15:24 29.2 °C 10.3 °C 31 % 8 km/h (14 km/h) 0 mm0 mm 25.6 °C 24.8 °C 23.1 °C 21.8 °C 20000 m 0   0 cm 0 min 140.6 W/m² 1020.8 hPa
15:18 29.5 °C 9.6 °C 29 % 6 km/h (12 km/h) 0 mm0 mm 25.5 °C 24.7 °C 23.2 °C 21.8 °C 20000 m 0   0 cm 0 min 131.1 W/m² 1020.8 hPa
15:12 29.9 °C 8.9 °C 27 % 5 km/h (12 km/h) 0 mm0 mm 25.5 °C 24.7 °C 23.2 °C 21.9 °C 20000 m 0   0 cm 0 min 146.6 W/m² 1020.7 hPa
15:06 29.9 °C 8.9 °C 27 % 4 km/h (12 km/h) 0 mm0 mm 25.3 °C 24.6 °C 23.2 °C 21.8 °C 20000 m 0   0 cm 1 min 163.6 W/m² 1020.8 hPa
15:00 29.8 °C 9.3 °C 28 % 4 km/h (8 km/h) 0 mm0 mm 25.3 °C 24.5 °C 23.2 °C 21.8 °C 20000 m 0   0 cm 0 min 162 W/m² 1020.8 hPa
14:54 29.9 °C 9.4 °C 28 % 4 km/h (12 km/h) 0 mm0 mm 25.2 °C 24.4 °C 23.1 °C 21.8 °C 20000 m 0   0 cm 4 min 207 W/m² 1020.8 hPa
14:48 29.4 °C 9 °C 28 % 3 km/h (7 km/h) 0 mm0 mm 25.2 °C 24.4 °C 23.2 °C 21.8 °C 20000 m 0   0 cm 5 min 227.5 W/m² 1020.9 hPa
14:42 29 °C 9.2 °C 29 % 6 km/h (14 km/h) 0 mm0 mm 25.1 °C 24.3 °C 23.2 °C 21.8 °C 20000 m 0   0 cm 3 min 181.4 W/m² 1020.9 hPa
14:36 29 °C 9.2 °C 29 % 7 km/h (14 km/h) 0 mm0 mm 25 °C 24.3 °C 23.2 °C 21.8 °C 20000 m 0   0 cm 4 min 237.8 W/m² 1020.9 hPa
14:30 28.7 °C 8.9 °C 29 % 6 km/h (14 km/h) 0 mm0 mm 25 °C 24.2 °C 23.2 °C 21.8 °C 20000 m 0   0 cm 1 min 172 W/m² 1021 hPa
14:24 28.7 °C 8.9 °C 29 % 8 km/h (14 km/h) 0 mm0 mm 24.9 °C 24.2 °C 23.2 °C 21.8 °C 20000 m 0   0 cm 0 min 160.5 W/m² 1021 hPa
14:18 28.8 °C 9 °C 29 % 5 km/h (11 km/h) 0 mm0 mm 24.8 °C 24.1 °C 23.2 °C 21.8 °C 20000 m 0   0 cm 6 min 233 W/m² 1021 hPa
14:12 28.4 °C 9.6 °C 31 % 4 km/h (13 km/h) 0 mm0 mm 24.7 °C 24 °C 23.2 °C 21.8 °C 20000 m 0   0 cm 0 min 139.6 W/m² 1021.1 hPa
14:06 28.1 °C 9.4 °C 31 % 6 km/h (13 km/h) 0 mm0 mm 24.7 °C 24 °C 23.2 °C 21.8 °C 20000 m 0   0 cm 0 min 144.8 W/m² 1021.1 hPa
14:00 28 °C 9.3 °C 31 % 4 km/h (11 km/h) 0 mm0 mm 24.6 °C 23.9 °C 23.2 °C 21.8 °C 20000 m 0   0 cm 0 min 154.3 W/m² 1021.2 hPa
13:54 27.7 °C 10 °C 33 % 6 km/h (15 km/h) 0 mm0 mm 24.5 °C 23.8 °C 23.2 °C 21.8 °C 20000 m 0   0 cm 0 min 164.7 W/m² 1021.2 hPa
13:48 27.8 °C 10 °C 33 % 8 km/h (15 km/h) 0 mm0 mm 24.4 °C 23.7 °C 23.2 °C 21.8 °C 20000 m 0   0 cm 0 min 151.1 W/m² 1021.3 hPa
13:42 27.7 °C 9.5 °C 32 % 8 km/h (18 km/h) 0 mm0 mm 24.3 °C 23.6 °C 23.2 °C 21.8 °C 20000 m 0   0 cm 0 min 138.6 W/m² 1021.3 hPa
13:36 27.9 °C 9.7 °C 32 % 10 km/h (18 km/h) 0 mm0 mm 24.2 °C 23.5 °C 23.3 °C 21.8 °C 19780 m 0   0 cm 2 min 179.4 W/m² 1021.4 hPa
13:30 28.1 °C 9.9 °C 32 % 8 km/h (15 km/h) 0 mm0 mm 24.2 °C 23.5 °C 23.3 °C 21.8 °C 19780 m 0   0 cm 6 min 264.7 W/m² 1021.3 hPa
13:24 28 °C 10.2 °C 33 % 8 km/h (14 km/h) 0 mm0 mm 24.1 °C 23.4 °C 23.3 °C 21.8 °C 20000 m 0   0 cm 6 min 243 W/m² 1021.6 hPa
13:18 27.5 °C 9.8 °C 33 % 9 km/h (15 km/h) 0 mm0 mm 24 °C 23.3 °C 23.3 °C 21.8 °C 20000 m 0   0 cm 6 min 231.5 W/m² 1021.8 hPa
13:12 27.1 °C 9.4 °C 33 % 10 km/h (20 km/h) 0 mm0 mm 23.9 °C 23.2 °C 23.3 °C 21.8 °C 20000 m 0   0 cm 0 min 161.5 W/m² 1021.8 hPa
13:06 27.4 °C 10.1 °C 34 % 12 km/h (21 km/h) 0 mm0 mm 23.8 °C 23.1 °C 23.3 °C 21.8 °C 20000 m 0   0 cm 3 min 229.3 W/m² 1021.8 hPa
13:00 27.4 °C 10.6 °C 35 % 10 km/h (20 km/h) 0 mm0 mm 23.6 °C 23.1 °C 23.3 °C 21.8 °C 20000 m 0   0 cm 6 min 309.6 W/m² 1021.8 hPa
12:54 26.9 °C 10.6 °C 36 % 10 km/h (15 km/h) 0 mm0 mm 23.5 °C 22.9 °C 23.3 °C 21.8 °C 20000 m 0   0 cm 4 min 210.6 W/m² 1021.9 hPa
12:48 26.8 °C 10.5 °C 36 % 9 km/h (15 km/h) 0 mm0 mm 23.4 °C 22.9 °C 23.3 °C 21.8 °C 20000 m 0   0 cm 3 min 191 W/m² 1022 hPa
12:42 27.2 °C 10.4 °C 35 % 9 km/h (16 km/h) 0 mm0 mm 23.3 °C 22.8 °C 23.3 °C 21.8 °C 20000 m 0   0 cm 4 min 235.5 W/m² 1022.1 hPa
12:36 27.2 °C 10 °C 34 % 9 km/h (16 km/h) 0 mm0 mm 23.2 °C 22.7 °C 23.4 °C 21.8 °C 20000 m 0   0 cm 6 min 254.8 W/m² 1022.1 hPa
12:30 26.7 °C 10.4 °C 36 % 11 km/h (18 km/h) 0 mm0 mm 23.1 °C 22.6 °C 23.3 °C 21.8 °C 20000 m 0   0 cm 6 min 246.3 W/m² 1022.2 hPa
12:24 26.6 °C 9.9 °C 35 % 13 km/h (20 km/h) 0 mm0 mm 23 °C 22.5 °C 23.4 °C 21.8 °C 20000 m 0   0 cm 6 min 232.1 W/m² 1022.4 hPa
12:18 26.5 °C 10.2 °C 36 % 12 km/h (18 km/h) 0 mm0 mm 22.8 °C 22.4 °C 23.3 °C 21.8 °C 20000 m 0   0 cm 6 min 238 W/m² 1022.4 hPa
12:12 26.2 °C 11.1 °C 39 % 8 km/h (18 km/h) 0 mm0 mm 22.7 °C 22.4 °C 23.4 °C 21.8 °C 20000 m 0   0 cm 6 min 223.8 W/m² 1022.4 hPa
12:06 25.8 °C 11.2 °C 40 % 4 km/h (13 km/h) 0 mm0 mm 22.6 °C 22.3 °C 23.4 °C 21.8 °C 20000 m 0   0 cm 6 min 219.2 W/m² 1022.4 hPa
12:00 25.2 °C 11.4 °C 42 % 6 km/h (12 km/h) 0 mm0 mm 22.5 °C 22.2 °C 23.4 °C 21.8 °C 20000 m 0   0 cm 6 min 207 W/m² 1022.5 hPa
11:54 25.2 °C 11 °C 41 % 5 km/h (10 km/h) 0 mm0 mm 22.3 °C 22.1 °C 23.4 °C 21.8 °C 20000 m 0   0 cm 6 min 208 W/m² 1022.5 hPa
11:48 24.6 °C 12.2 °C 46 % 4 km/h (9 km/h) 0 mm0 mm 22.2 °C 22.1 °C 23.4 °C 21.8 °C 20000 m 0   0 cm 4 min 194.4 W/m² 1022.7 hPa
11:42 24.2 °C 11.8 °C 46 % 5 km/h (10 km/h) 0 mm0 mm 22.2 °C 21.9 °C 23.4 °C 21.8 °C 20000 m 0   0 cm 6 min 225.9 W/m² 1022.8 hPa
11:36 24.3 °C 11.6 °C 45 % 4 km/h (10 km/h) 0 mm0 mm 22 °C 21.9 °C 23.4 °C 21.8 °C 20000 m 0   0 cm 6 min 250.8 W/m² 1022.9 hPa
11:30 24 °C 11.3 °C 45 % 6 km/h (11 km/h) 0 mm0 mm 21.9 °C 21.8 °C 23.4 °C 21.8 °C 20000 m 0   0 cm 6 min 231.3 W/m² 1022.9 hPa
11:24 23.5 °C 11.2 °C 46 % 5 km/h (10 km/h) 0 mm0 mm 21.8 °C 21.8 °C 23.5 °C 21.8 °C 20000 m 0   0 cm 5 min 195.6 W/m² 1022.9 hPa
11:18 23.4 °C 11.1 °C 46 % 5 km/h (10 km/h) 0 mm0 mm 21.7 °C 21.7 °C 23.4 °C 21.8 °C 20000 m 0   0 cm 6 min 231.6 W/m² 1023 hPa
11:12 22.7 °C 11.4 °C 49 % 6 km/h (10 km/h) 0 mm0 mm 21.6 °C 21.6 °C 23.5 °C 21.8 °C 20000 m 0   0 cm 6 min 214.7 W/m² 1023.2 hPa
11:06 22.5 °C 11.6 °C 50 % 5 km/h (9 km/h) 0 mm0 mm 21.5 °C 21.6 °C 23.5 °C 21.8 °C 20000 m 0   0 cm 6 min 214.6 W/m² 1023.3 hPa
11:00 22.1 °C 11.2 °C 50 % 5 km/h (10 km/h) 0 mm0 mm 21.4 °C 21.6 °C 23.5 °C 21.8 °C 20000 m 0   0 cm 6 min 179 W/m² 1023.4 hPa
10:54 22.1 °C 10.9 °C 49 % 5 km/h (10 km/h) 0 mm0 mm 21.3 °C 21.5 °C 23.5 °C 21.8 °C 20000 m 0   0 cm 6 min 202.2 W/m² 1023.4 hPa
10:48 21.7 °C 10.5 °C 49 % 3 km/h (9 km/h) 0 mm0 mm 21.3 °C 21.5 °C 23.5 °C 21.8 °C 20000 m 0   0 cm 6 min 197.3 W/m² 1023.6 hPa
10:42 21.4 °C 10.5 °C 50 % 3 km/h (9 km/h) 0 mm0 mm 21.2 °C 21.5 °C 23.5 °C 21.8 °C 20000 m 0   0 cm 6 min 190.8 W/m² 1023.7 hPa
10:36 21 °C 11.1 °C 53 % 4 km/h (8 km/h) 0 mm0 mm 21.1 °C 21.4 °C 23.5 °C 21.8 °C 20000 m 0   0 cm 6 min 186.3 W/m² 1023.8 hPa
10:30 20.5 °C 10.6 °C 53 % 4 km/h (9 km/h) 0 mm0 mm 21 °C 21.4 °C 23.5 °C 21.8 °C 20000 m 0   0 cm 6 min 180.8 W/m² 1023.9 hPa
10:24 20 °C 10.4 °C 54 % 4 km/h (8 km/h) 0 mm0 mm 21 °C 21.4 °C 23.5 °C 21.8 °C 20000 m 0   0 cm 6 min 175.2 W/m² 1024 hPa
10:18 19.6 °C 10.3 °C 55 % 4 km/h (6 km/h) 0 mm0 mm 20.9 °C 21.4 °C 23.5 °C 21.8 °C 20000 m 0   0 cm 6 min 167.4 W/m² 1024.1 hPa
10:12 19.2 °C 10.7 °C 58 % 3 km/h (6 km/h) 0 mm0 mm 20.9 °C 21.3 °C 23.5 °C 21.8 °C 20000 m 0   0 cm 6 min 152.8 W/m² 1024.2 hPa
10:06 18.8 °C 10.9 °C 60 % 3 km/h (6 km/h) 0 mm0 mm 20.8 °C 21.3 °C 23.6 °C 21.8 °C 20000 m 0   0 cm 6 min 157.6 W/m² 1024.3 hPa
10:00 18.6 °C 10.7 °C 60 % 3 km/h (7 km/h) 0 mm0 mm 20.8 °C 21.3 °C 23.6 °C 21.8 °C 20000 m 0   0 cm 6 min 148.8 W/m² 1024.4 hPa
09:54 18.1 °C 10.9 °C 63 % 3 km/h (7 km/h) 0 mm0 mm 20.8 °C 21.4 °C 23.6 °C 21.8 °C 20000 m 0   0 cm 6 min 148.4 W/m² 1024.4 hPa
09:48 17.4 °C 10.7 °C 65 % 2 km/h (5 km/h) 0 mm0 mm 20.8 °C 21.3 °C 23.6 °C 21.8 °C 20000 m 0   0 cm 6 min 143.4 W/m² 1024.3 hPa
09:42 16.5 °C 10.8 °C 69 % 2 km/h (5 km/h) 0 mm0 mm 20.8 °C 21.3 °C 23.6 °C 21.8 °C 20000 m 0   0 cm 6 min 137 W/m² 1024.8 hPa
09:36 15.8 °C 10.5 °C 71 % 4 km/h (7 km/h) 0 mm0 mm 20.7 °C 21.3 °C 23.6 °C 21.8 °C 20000 m 0   0 cm 6 min 128.8 W/m² 1024.8 hPa
09:30 15.3 °C 10.5 °C 73 % 4 km/h (8 km/h) 0 mm0 mm 20.7 °C 21.4 °C 23.6 °C 21.8 °C 20000 m 0   0 cm 6 min 123.6 W/m² 1024.9 hPa
09:24 14.7 °C 10.1 °C 74 % 6 km/h (8 km/h) 0 mm0 mm 20.7 °C 21.4 °C 23.6 °C 21.8 °C 20000 m 0   0 cm 6 min 107.5 W/m² 1024.8 hPa
09:18 14.6 °C 10.6 °C 77 % 6 km/h (10 km/h) 0 mm0 mm 20.8 °C 21.4 °C 23.6 °C 21.7 °C 20000 m 0   0 cm 6 min 96.2 W/m² 1024.8 hPa
09:12 14.4 °C 10.4 °C 77 % 7 km/h (10 km/h) 0 mm0 mm 20.7 °C 21.4 °C 23.6 °C 21.8 °C 20000 m 0   0 cm 6 min 94.5 W/m² 1024.8 hPa
09:06 14.6 °C 10.8 °C 78 % 5 km/h (10 km/h) 0 mm0 mm 20.7 °C 21.4 °C 23.7 °C 21.8 °C 20000 m 0   0 cm 6 min 95.3 W/m² 1024.8 hPa
09:00 14.5 °C 10.3 °C 76 % 3 km/h (6 km/h) 0 mm0 mm 20.8 °C 21.4 °C 23.6 °C 21.8 °C 20000 m 0   0 cm 6 min 84.1 W/m² 1024.6 hPa
08:54 15.3 °C 10.5 °C 73 % 0 km/h (5 km/h) 0 mm0 mm 20.8 °C 21.5 °C 23.7 °C 21.8 °C 20000 m 0   0 cm 6 min 73.6 W/m² 1024.6 hPa
08:48 14.8 °C 10.8 °C 77 % 2 km/h (4 km/h) 0 mm0 mm 20.8 °C 21.5 °C 23.7 °C 21.8 °C 20000 m 0   0 cm 6 min 71.5 W/m² 1024.5 hPa
08:42 14.3 °C 10.9 °C 80 % 2 km/h (4 km/h) 0 mm0 mm 20.8 °C 21.6 °C 23.7 °C 21.8 °C 20000 m 0   0 cm 6 min 67.8 W/m² 1024.4 hPa
08:36 13.7 °C 10.5 °C 81 % 3 km/h (4 km/h) 0 mm0 mm 20.9 °C 21.6 °C 23.7 °C 21.8 °C 20000 m 0   0 cm 6 min 62.1 W/m² 1024.6 hPa
08:30 13.3 °C 10.1 °C 81 % 3 km/h (4 km/h) 0 mm0 mm 20.9 °C 21.6 °C 23.7 °C 21.8 °C 20000 m 0   0 cm 6 min 56 W/m² 1024.6 hPa
08:24 12.7 °C 9.9 °C 83 % 2 km/h (4 km/h) 0 mm0 mm 20.9 °C 21.6 °C 23.7 °C 21.8 °C 20000 m 0   0 cm 6 min 48.4 W/m² 1024.7 hPa
08:18 12.3 °C 10.2 °C 87 % 0 km/h (3 km/h) 0 mm0 mm 21 °C 21.7 °C 23.8 °C 21.8 °C 20000 m 0   0 cm 6 min 44 W/m² 1024.9 hPa
08:12 11.7 °C 10.1 °C 90 % 3 km/h (6 km/h) 0 mm0 mm 21 °C 21.7 °C 23.7 °C 21.8 °C 20000 m 0   0 cm 6 min 38 W/m² 1025.1 hPa
08:06 11.2 °C 9.6 °C 90 % 5 km/h (7 km/h) 0 mm0 mm 21 °C 21.8 °C 23.8 °C 21.8 °C 20000 m 0   0 cm 6 min 32.9 W/m² 1025.1 hPa
08:00 11 °C 9.4 °C 90 % 6 km/h (8 km/h) 0 mm0 mm 21.1 °C 21.8 °C 23.7 °C 21.8 °C 20000 m 0   0 cm 6 min 29.5 W/m² 1025.3 hPa
07:54 10.9 °C 9.5 °C 91 % 6 km/h (9 km/h) 0 mm0 mm 21.1 °C 21.8 °C 23.8 °C 21.8 °C 20000 m 0   0 cm 6 min 24.2 W/m² 1025.2 hPa
07:48 11 °C 9.6 °C 91 % 4 km/h (8 km/h) 0 mm0 mm 21.2 °C 21.9 °C 23.8 °C 21.8 °C 20000 m 0   0 cm 6 min 19.8 W/m² 1025.2 hPa
07:42 10.8 °C 9.7 °C 93 % 2 km/h (4 km/h) 0 mm0 mm 21.2 °C 21.9 °C 23.8 °C 21.8 °C 20000 m 0   0 cm 6 min 14.7 W/m² 1025 hPa
07:36 10.5 °C 9.4 °C 93 % 0 km/h (3 km/h) 0 mm0 mm 21.2 °C 21.9 °C 23.8 °C 21.8 °C 20000 m 0   0 cm 3 min 10.1 W/m² 1025 hPa
07:30 10.4 °C 9.3 °C 93 % 2 km/h (4 km/h) 0 mm0 mm 21.3 °C 22 °C 23.8 °C 21.8 °C 20000 m 0   0 cm 0 min 1.3 W/m² 1024.8 hPa
07:24 10.3 °C 9.2 °C 93 % 2 km/h (4 km/h) 0 mm0 mm 21.3 °C 22 °C 23.8 °C 21.8 °C 20000 m 0   0 cm 0 min 0 W/m² 1024.8 hPa
07:18 10.4 °C 9.2 °C 92 % 2 km/h (3 km/h) 0 mm0 mm 21.4 °C 22.1 °C 23.8 °C 21.8 °C 20000 m 0   0 cm 0 min 0 W/m² 1024.8 hPa
07:12 10.4 °C 9 °C 91 % 2 km/h (4 km/h) 0 mm0 mm 21.4 °C 22.1 °C 23.8 °C 21.8 °C 20000 m 0   0 cm 0 min 0 W/m² 1024.8 hPa
07:06 10.5 °C 9.1 °C 91 % 3 km/h (4 km/h) 0 mm0 mm 21.5 °C 22.2 °C 23.8 °C 21.8 °C 20000 m 0   0 cm 0 min 0 W/m² 1024.9 hPa
07:00 10.6 °C 9.4 °C 92 % 3 km/h (4 km/h) 0 mm0 mm 21.5 °C 22.2 °C 23.8 °C 21.7 °C 20000 m 0   0 cm 0 min 0 W/m² 1024.9 hPa
06:54 10.6 °C 9.2 °C 91 % 0 km/h (3 km/h) 0 mm0 mm 21.5 °C 22.2 °C 23.8 °C 21.8 °C 20000 m 0   0 cm 0 min 0 W/m² 1024.8 hPa
06:48 10.7 °C 9.3 °C 91 % 3 km/h (7 km/h) 0 mm0 mm 21.5 °C 22.2 °C 23.8 °C 21.7 °C 20000 m 0   0 cm 0 min 0 W/m² 1024.8 hPa
06:42 10.8 °C 9.6 °C 92 % 4 km/h (7 km/h) 0 mm0 mm 21.6 °C 22.3 °C 23.8 °C 21.8 °C 20000 m 0   0 cm 0 min 0 W/m² 1024.8 hPa
06:36 10.8 °C 9.2 °C 90 % 2 km/h (5 km/h) 0 mm0 mm 21.6 °C 22.3 °C 23.8 °C 21.7 °C 20000 m 0   0 cm 0 min 0 W/m² 1024.9 hPa
06:30 11 °C 9.4 °C 90 % 4 km/h (6 km/h) 0 mm0 mm 21.7 °C 22.4 °C 23.8 °C 21.7 °C 20000 m 0   0 cm 0 min 0 W/m² 1024.9 hPa
06:24 11.1 °C 9.5 °C 90 % 4 km/h (6 km/h) 0 mm0 mm 21.7 °C 22.4 °C 23.9 °C 21.8 °C 20000 m 0   0 cm 0 min 0 W/m² 1024.9 hPa
06:18 10.9 °C 9.3 °C 90 % 3 km/h (4 km/h) 0 mm0 mm 21.8 °C 22.4 °C 23.8 °C 21.8 °C 20000 m 0   0 cm 0 min 0 W/m² 1024.9 hPa
06:12 11 °C 9.6 °C 91 % 4 km/h (6 km/h) 0 mm0 mm 21.8 °C 22.5 °C 23.9 °C 21.8 °C 20000 m 0   0 cm 0 min 0 W/m² 1025 hPa
06:06 11.1 °C 9.5 °C 90 % 3 km/h (6 km/h) 0 mm0 mm 21.8 °C 22.5 °C 23.9 °C 21.8 °C 20000 m 0   0 cm 0 min 0 W/m² 1025 hPa
06:00 11.3 °C 9.4 °C 88 % 4 km/h (6 km/h) 0 mm0 mm 21.9 °C 22.6 °C 23.9 °C 21.8 °C 20000 m 0   0 cm 0 min 0 W/m² 1025 hPa
05:54 11.4 °C 9.6 °C 89 % 4 km/h (6 km/h) 0 mm0 mm 21.9 °C 22.6 °C 23.9 °C 21.8 °C 20000 m 0   0 cm 0 min 0 W/m² 1025.1 hPa
05:48 11.5 °C 9.6 °C 88 % 4 km/h (6 km/h) 0 mm0 mm 22 °C 22.6 °C 23.9 °C 21.8 °C 20000 m 0   0 cm 0 min 0 W/m² 1025.1 hPa
05:42 11.5 °C 9.7 °C 89 % 4 km/h (7 km/h) 0 mm0 mm 22 °C 22.7 °C 23.9 °C 21.8 °C 20000 m 0   0 cm 0 min 0 W/m² 1025.1 hPa
05:36 11.4 °C 9.6 °C 89 % 5 km/h (6 km/h) 0 mm0 mm 22.1 °C 22.7 °C 23.9 °C 21.8 °C 20000 m 0   0 cm 0 min 0 W/m² 1025.1 hPa
05:30 11.4 °C 9.6 °C 89 % 4 km/h (6 km/h) 0 mm0 mm 22.1 °C 22.8 °C 23.9 °C 21.8 °C 20000 m 0   0 cm 0 min 0 W/m² 1025.1 hPa
05:24 11.5 °C 9.7 °C 89 % 3 km/h (5 km/h) 0 mm0 mm 22.2 °C 22.8 °C 23.9 °C 21.8 °C 20000 m 0   0 cm 0 min 0 W/m² 1025.3 hPa
05:18 11.4 °C 9.6 °C 89 % 3 km/h (5 km/h) 0 mm0 mm 22.2 °C 22.9 °C 23.9 °C 21.7 °C 20000 m 0   0 cm 0 min 0 W/m² 1025.4 hPa
05:12 11.6 °C 9.8 °C 89 % 3 km/h (6 km/h) 0 mm0 mm 22.2 °C 22.9 °C 23.9 °C 21.8 °C 20000 m 0   0 cm 0 min 0 W/m² 1025.4 hPa
05:06 11.6 °C 10 °C 90 % 5 km/h (7 km/h) 0 mm0 mm 22.3 °C 23 °C 23.9 °C 21.8 °C 20000 m 0   0 cm 0 min 0 W/m² 1025.4 hPa
05:00 11.7 °C 9.8 °C 88 % 4 km/h (7 km/h) 0 mm0 mm 22.4 °C 23 °C 23.9 °C 21.8 °C 20000 m 0   0 cm 0 min 0 W/m² 1025.4 hPa
04:54 11.7 °C 9.9 °C 89 % 4 km/h (6 km/h) 0 mm0 mm 22.4 °C 23 °C 23.9 °C 21.7 °C 20000 m 0   0 cm 0 min 0 W/m² 1025.3 hPa
04:48 11.7 °C 9.8 °C 88 % 4 km/h (5 km/h) 0 mm0 mm 22.4 °C 23.1 °C 23.9 °C 21.7 °C 20000 m 0   0 cm 0 min 0 W/m² 1025.3 hPa
04:42 11.8 °C 9.7 °C 87 % 4 km/h (5 km/h) 0 mm0 mm 22.5 °C 23.1 °C 23.9 °C 21.7 °C 20000 m 0   0 cm 0 min 0 W/m² 1025.2 hPa
04:36 12 °C 9.6 °C 85 % 4 km/h (7 km/h) 0 mm0 mm 22.6 °C 23.2 °C 23.9 °C 21.7 °C 20000 m 0   0 cm 0 min 0 W/m² 1025.1 hPa
04:30 12.4 °C 9.9 °C 85 % 5 km/h (7 km/h) 0 mm0 mm 22.6 °C 23.2 °C 23.9 °C 21.8 °C 20000 m 0   0 cm 0 min 0 W/m² 1025.2 hPa
04:24 13.1 °C 9.9 °C 81 % 6 km/h (8 km/h) 0 mm0 mm 22.6 °C 23.3 °C 23.9 °C 21.8 °C 20000 m 0   0 cm 0 min 0 W/m² 1025.1 hPa
04:18 13.1 °C 9.7 °C 80 % 6 km/h (8 km/h) 0 mm0 mm 22.7 °C 23.3 °C 23.9 °C 21.8 °C 20000 m 0   0 cm 0 min 0 W/m² 1025.1 hPa
04:12 13.1 °C 9.7 °C 80 % 4 km/h (7 km/h) 0 mm0 mm 22.7 °C 23.3 °C 23.9 °C 21.7 °C 20000 m 0   0 cm 0 min 0 W/m² 1025.1 hPa
04:06 13.3 °C 9.7 °C 79 % 3 km/h (5 km/h) 0 mm0 mm 22.8 °C 23.4 °C 23.9 °C 21.8 °C 20000 m 0   0 cm 0 min 0 W/m² 1025.3 hPa
04:00 13.4 °C 9.3 °C 76 % 5 km/h (9 km/h) 0 mm0 mm 22.8 °C 23.4 °C 23.9 °C 21.7 °C 20000 m 0   0 cm 0 min 0 W/m² 1025.3 hPa
03:54 13 °C 9.3 °C 78 % 6 km/h (9 km/h) 0 mm0 mm 22.9 °C 23.5 °C 23.9 °C 21.7 °C 20000 m 0   0 cm 0 min 0 W/m² 1025.3 hPa
03:48 12.8 °C 9.4 °C 80 % 4 km/h (8 km/h) 0 mm0 mm 22.9 °C 23.5 °C 23.9 °C 21.8 °C 20000 m 0   0 cm 0 min 0 W/m² 1025.3 hPa
03:42 12.9 °C 9.5 °C 80 % 2 km/h (4 km/h) 0 mm0 mm 23 °C 23.6 °C 23.9 °C 21.7 °C 20000 m 0   0 cm 0 min 0 W/m² 1025.3 hPa
03:36 12.8 °C 9.6 °C 81 % 4 km/h (9 km/h) 0 mm0 mm 23 °C 23.6 °C 23.9 °C 21.7 °C 20000 m 0   0 cm 0 min 0 W/m² 1025.4 hPa
03:30 13 °C 9.4 °C 79 % 6 km/h (9 km/h) 0 mm0 mm 23.1 °C 23.6 °C 23.9 °C 21.7 °C 20000 m 0   0 cm 0 min 0 W/m² 1025.4 hPa
03:24 12.9 °C 9.9 °C 82 % 4 km/h (7 km/h) 0 mm0 mm 23.1 °C 23.7 °C 23.9 °C 21.7 °C 20000 m 0   0 cm 0 min 0 W/m² 1025.5 hPa
03:18 12.6 °C 10 °C 84 % 3 km/h (4 km/h) 0 mm0 mm 23.2 °C 23.8 °C 23.9 °C 21.8 °C 20000 m 0   0 cm 0 min 0 W/m² 1025.7 hPa
03:12 12.5 °C 10 °C 85 % 2 km/h (4 km/h) 0 mm0 mm 23.2 °C 23.8 °C 23.9 °C 21.7 °C 20000 m 0   0 cm 0 min 0 W/m² 1025.8 hPa
03:06 12.6 °C 10.3 °C 86 % 0 km/h (3 km/h) 0 mm0 mm 23.3 °C 23.9 °C 23.9 °C 21.7 °C 20000 m 0   0 cm 0 min 0 W/m² 1025.7 hPa
03:00 12.6 °C 10.1 °C 85 % 3 km/h (4 km/h) 0 mm0 mm 23.3 °C 23.9 °C 23.9 °C 21.7 °C 20000 m 0   0 cm 0 min 0 W/m² 1025.7 hPa
02:54 12.7 °C 10.4 °C 86 % 5 km/h (8 km/h) 0 mm0 mm 23.4 °C 23.9 °C 23.9 °C 21.7 °C 20000 m 0   0 cm 0 min 0 W/m² 1025.8 hPa
02:48 13 °C 10.5 °C 85 % 5 km/h (8 km/h) 0 mm0 mm 23.4 °C 24 °C 23.9 °C 21.7 °C 20000 m 0   0 cm 0 min 0 W/m² 1025.7 hPa
02:42 12.8 °C 10.3 °C 85 % 3 km/h (4 km/h) 0 mm0 mm 23.5 °C 24 °C 23.9 °C 21.7 °C 20000 m 0   0 cm 0 min 0 W/m² 1025.6 hPa
02:36 13 °C 10.4 °C 84 % 3 km/h (5 km/h) 0 mm0 mm 23.5 °C 24.1 °C 23.9 °C 21.7 °C 20000 m 0   0 cm 0 min 0 W/m² 1025.6 hPa
02:30 13.3 °C 10.5 °C 83 % 4 km/h (7 km/h) 0 mm0 mm 23.6 °C 24.1 °C 23.9 °C 21.7 °C 20000 m 0   0 cm 0 min 0 W/m² 1025.7 hPa
02:24 13.7 °C 10.5 °C 81 % 4 km/h (7 km/h) 0 mm0 mm 23.6 °C 24.2 °C 23.9 °C 21.8 °C 20000 m 0   0 cm 0 min 0 W/m² 1025.7 hPa
02:18 14.2 °C 10.6 °C 79 % 4 km/h (6 km/h) 0 mm0 mm 23.7 °C 24.2 °C 23.9 °C 21.7 °C 20000 m 0   0 cm 0 min 0 W/m² 1025.7 hPa
02:12 14.2 °C 10.6 °C 79 % 5 km/h (6 km/h) 0 mm0 mm 23.8 °C 24.3 °C 23.9 °C 21.7 °C 20000 m 0   0 cm 0 min 0 W/m² 1025.7 hPa
02:06 14.3 °C 10.7 °C 79 % 4 km/h (5 km/h) 0 mm0 mm 23.8 °C 24.3 °C 23.9 °C 21.7 °C 20000 m 0   0 cm 0 min 0 W/m² 1025.5 hPa
02:00 14.3 °C 10.7 °C 79 % 3 km/h (5 km/h) 0 mm0 mm 23.9 °C 24.4 °C 23.9 °C 21.8 °C 20000 m 0   0 cm 0 min 0 W/m² 1025.5 hPa
01:54 14.5 °C 10.3 °C 76 % 4 km/h (6 km/h) 0 mm0 mm 23.9 °C 24.4 °C 23.9 °C 21.7 °C 20000 m 0   0 cm 0 min 0 W/m² 1025.6 hPa
01:48 14.7 °C 10.5 °C 76 % 5 km/h (6 km/h) 0 mm0 mm 24 °C 24.5 °C 23.9 °C 21.7 °C 20000 m 0   0 cm 0 min 0 W/m² 1025.7 hPa
01:42 14.6 °C 11 °C 79 % 4 km/h (5 km/h) 0 mm0 mm 24.1 °C 24.5 °C 23.9 °C 21.7 °C 20000 m 0   0 cm 0 min 0 W/m² 1025.7 hPa
01:36 15 °C 11 °C 77 % 5 km/h (6 km/h) 0 mm0 mm 24.1 °C 24.6 °C 23.9 °C 21.7 °C 20000 m 0   0 cm 0 min 0 W/m² 1025.7 hPa
01:30 15.3 °C 10.3 °C 72 % 5 km/h (6 km/h) 0 mm0 mm 24.1 °C 24.6 °C 23.9 °C 21.7 °C 20000 m 0   0 cm 0 min 0 W/m² 1025.6 hPa
01:24 15.2 °C 10.4 °C 73 % 5 km/h (6 km/h) 0 mm0 mm 24.2 °C 24.7 °C 23.9 °C 21.8 °C 20000 m 0   0 cm 0 min 0 W/m² 1025.6 hPa
01:18 14.9 °C 10.5 °C 75 % 3 km/h (6 km/h) 0 mm0 mm 24.3 °C 24.7 °C 23.9 °C 21.7 °C 20000 m 0   0 cm 0 min 0 W/m² 1025.6 hPa
01:12 14.6 °C 11 °C 79 % 3 km/h (5 km/h) 0 mm0 mm 24.3 °C 24.7 °C 23.8 °C 21.7 °C 20000 m 0   0 cm 0 min 0 W/m² 1025.5 hPa
01:06 14.5 °C 11.1 °C 80 % 3 km/h (5 km/h) 0 mm0 mm 24.4 °C 24.8 °C 23.8 °C 21.7 °C 20000 m 0   0 cm 0 min 0 W/m² 1025.6 hPa
01:00 14.4 °C 10.8 °C 79 % 3 km/h (4 km/h) 0 mm0 mm 24.4 °C 24.9 °C 23.8 °C 21.7 °C 20000 m 0   0 cm 0 min 0 W/m² 1025.6 hPa
00:54 14.4 °C 10.8 °C 79 % 3 km/h (3 km/h) 0 mm0 mm 24.5 °C 24.9 °C 23.9 °C 21.8 °C 20000 m 0   0 cm 0 min 0 W/m² 1025.5 hPa
00:48 14.5 °C 10.9 °C 79 % 3 km/h (4 km/h) 0 mm0 mm 24.6 °C 25 °C 23.8 °C 21.7 °C 20000 m 0   0 cm 0 min 0 W/m² 1025.4 hPa
00:42 15 °C 11 °C 77 % 3 km/h (5 km/h) 0 mm0 mm 24.6 °C 25 °C 23.8 °C 21.7 °C 20000 m 0   0 cm 0 min 0 W/m² 1025.5 hPa
00:36 15.1 °C 10.9 °C 76 % 5 km/h (7 km/h) 0 mm0 mm 24.7 °C 25 °C 23.8 °C 21.7 °C 20000 m 0   0 cm 0 min 0 W/m² 1025.6 hPa
00:30 15.3 °C 11.3 °C 77 % 5 km/h (7 km/h) 0 mm0 mm 24.7 °C 25.1 °C 23.8 °C 21.7 °C 20000 m 0   0 cm 0 min 0 W/m² 1025.6 hPa
00:24 15.5 °C 11.1 °C 75 % 4 km/h (7 km/h) 0 mm0 mm 24.8 °C 25.2 °C 23.8 °C 21.7 °C 20000 m 0   0 cm 0 min 0 W/m² 1025.5 hPa
00:18 15.6 °C 10.8 °C 73 % 4 km/h (6 km/h) 0 mm0 mm 24.9 °C 25.2 °C 23.8 °C 21.7 °C 20000 m 0   0 cm 0 min 0 W/m² 1025.5 hPa
00:12 15.7 °C 11.1 °C 74 % 5 km/h (8 km/h) 0 mm0 mm 24.9 °C 25.2 °C 23.8 °C 21.7 °C 20000 m 0   0 cm 0 min 0 W/m² 1025.5 hPa
00:06 15.8 °C 11.2 °C 74 % 6 km/h (8 km/h) 0 mm0 mm 25 °C 25.3 °C 23.8 °C 21.7 °C 20000 m 0   0 cm 0 min 0 W/m² 1025.3 hPa
00:00 16 °C 11 °C 72 % 5 km/h (7 km/h) 0 mm0 mm 25 °C 25.3 °C 23.8 °C 21.7 °C 20000 m 0   0 cm 0 min 0 W/m² 1025.3 hPa

Données via Météo-France

Relevés météo à Auxerre-Perrigny

Cette page rassemble les observations de la station de Auxerre-Perrigny : température, humidité, vent, précipitations et pression atmosphérique. Les graphiques facilitent le suivi de la journée, tandis que le tableau donne accès aux mesures horaires et infra-horaires disponibles.

Pour replacer ces mesures dans leur contexte, consultez la climatologie de Auxerre-Perrigny. Retrouvez aussi la carte des observations météo en temps réel.